DATA ZE ZPRÁV METAR

Zprávy METAR jsou pravidelné letecké meteorologické zprávy o podmínkách na daném letišti, zejména o stavu oblačnosti, viditelnosti a průběhu počasí v poslední hodině. Na letištích s pravidelným provozem jsou vydávány každých 30 minut, jinak zpravidla jednou za hodinu. Ne každé letiště (zejména komerční) poskytuje zprávy po celých 24 hodin denně. Více o zprávách METAR najdete na této stránce.

Zprávy METAR z letišť v blízkém okolí

LKPR - Praha Ruzyně, Česká republika
Směr a vzdálenost od této stanice: ZJZ 98km
Aktualizováno: 24.09.2018 22:30
Jasno, Jasná obloha
Jasno, Jasná obloha
 Vítr ze směru Z
Vítr: Z 17 km/h
Teplota: 7°C
Chlad větru: 4°C
Rosný bod: 3°C
Vlhkost: 76%
Tlak vzduchu: 1030 hPa
Stav počasí: Jasno
Oblačnost: Jasná obloha
Dohlednost: více než 10 km
2018/09/24 20:30 LKPR 242030Z 28009KT CAVOK 07/03 Q1030 NOSIG
LKTB - Brno Tuřany, Česká republika
Směr a vzdálenost od této stanice: JJV 174km
Aktualizováno: 24.09.2018 22:30
Jasno, Jasná obloha
Jasno, Jasná obloha
 Vítr ze směru ZSZ
Vítr: ZSZ 15 km/h
Teplota: 9°C
Chlad větru: 7°C
Rosný bod: 2°C
Vlhkost: 62%
Tlak vzduchu: 1029 hPa
Stav počasí: Jasno
Oblačnost: Jasná obloha
Dohlednost: více než 10 km
2018/09/24 20:30 LKTB 242030Z 29008KT CAVOK 09/02 Q1029 NOSIG
 
LKKV - Karlovy Vary, Česká republika
Směr a vzdálenost od této stanice: Z 187km
Aktualizováno: 24.09.2018 22:00
Polojasno
Polojasno
 Vítr ze směru ZJZ
Vítr: ZJZ 15 km/h
Teplota: 5°C
Chlad větru: 2°C
Rosný bod: 3°C
Vlhkost: 87%
Tlak vzduchu: 1031 hPa
Oblačnost: Polojasno
Dohlednost: 10 km
Detaily oblačnosti: Skoro jasno 305 m
Polojasno 457 m
2018/09/24 20:00 LKKV 242000Z 25008KT 220V280 9999 FEW010 SCT015 05/03 Q1031
LKMT - Ostrava Mošnov, Česká republika
Směr a vzdálenost od této stanice: VJV 208km
Aktualizováno: 24.09.2018 22:30
Jasno, Jasná obloha
Jasno, Jasná obloha
 Vítr ze směru JZ
Vítr: JZ 9 km/h
Teplota: 6°C
Chlad větru: 4°C
Rosný bod: 1°C
Vlhkost: 71%
Tlak vzduchu: 1027 hPa
Stav počasí: Jasno
Oblačnost: Jasná obloha
Dohlednost: více než 10 km
2018/09/24 20:30 LKMT 242030Z 22005KT CAVOK 06/01 Q1027 NOSIG
 
LKPD - Pardubice, Česká republika
Směr a vzdálenost od této stanice: JJV 56km
Aktualizováno: 24.09.2018 22:00
Jasno, Jasná obloha
Jasno, Jasná obloha
 Vítr ze směru Z
Vítr: Z 22 km/h
Teplota: 8°C
Chlad větru: 4°C
Rosný bod: 3°C
Vlhkost: 71%
Tlak vzduchu: 1028 hPa
Stav počasí: Jasno
Oblačnost: Jasná obloha
Dohlednost: více než 10 km
2018/09/24 20:00 LKPD 242000Z 27012KT CAVOK 08/03 Q1028 NOSIG
LKKB - Praha Kbely, Česká republika
Směr a vzdálenost od této stanice: ZJZ 81km
Aktualizováno: 24.09.2018 22:00
Jasno, Jasná obloha
Jasno, Jasná obloha
 Vítr ze směru Z
Vítr: Z 22 km/h
Teplota: 8°C
Chlad větru: 4°C
Rosný bod: 3°C
Vlhkost: 71%
Tlak vzduchu: 1029 hPa
Stav počasí: Jasno
Oblačnost: Jasná obloha
Dohlednost: více než 10 km
2018/09/24 20:00 LKKB 242000Z 27012KT CAVOK 08/03 Q1029 NOSIG
 
LKCV - Čáslav, Česká republika
Směr a vzdálenost od této stanice: J 63km
Aktualizováno: 24.09.2018 22:00
Jasno, Jasná obloha
Jasno, Jasná obloha
 Vítr ze směru Z
Vítr: Z 24 km/h
Teplota: 9°C
Chlad větru: 6°C
Rosný bod: 3°C
Vlhkost: 66%
Tlak vzduchu: 1029 hPa
Stav počasí: Jasno
Oblačnost: Jasná obloha
Dohlednost: více než 10 km
2018/09/24 20:00 LKCV 242000Z 27013KT CAVOK 09/03 Q1029 NOSIG
LKNA - Náměšť n. Osl., Česká republika
Směr a vzdálenost od této stanice: JJV 154km
Aktualizováno: 24.09.2018 22:00
Jasno, Jasná obloha
Jasno, Jasná obloha
 Vítr ze směru ZSZ
Vítr: ZSZ 19 km/h
Teplota: 6°C
Chlad větru: 3°C
Rosný bod: 2°C
Vlhkost: 76%
Tlak vzduchu: 1028 hPa
Stav počasí: Jasno
Oblačnost: Jasná obloha
Dohlednost: více než 10 km
2018/09/24 20:00 LKNA 242000Z 29010KT CAVOK 06/02 Q1028 NOSIG
 
LKLN - Plzeň Líně, Česká republika
Směr a vzdálenost od této stanice: ZJZ 184km
Aktualizováno: 24.09.2018 22:00
Zataženo
Zataženo
 Vítr ze směru JZ
Vítr: JZ 6 km/h
Teplota: 7°C
Rosný bod: 5°C
Vlhkost: 87%
Tlak vzduchu: 1032 hPa
Oblačnost: Zataženo
Dohlednost: 10 km
Detaily oblačnosti: Polojasno 1524 m
Zataženo 3353 m
2018/09/24 20:00 LKLN 242000Z AUTO 22003KT 9999 SCT050 OVC110 07/05 Q1032
EDDC - Dresden Klotzsch, Německo
Směr a vzdálenost od této stanice: ZSZ 142km
Aktualizováno: 24.09.2018 22:50
Jasno, Jasná obloha
Jasno, Jasná obloha
 Vítr ze směru ZSZ
Vítr: ZSZ 19 km/h
Teplota: 7°C
Chlad větru: 4°C
Rosný bod: 4°C
Vlhkost: 81%
Tlak vzduchu: 1030 hPa
Stav počasí: Jasno
Oblačnost: Jasná obloha
Dohlednost: více než 10 km
2018/09/24 20:50 EDDC 242050Z 29010KT 250V320 CAVOK 07/04 Q1030